Time;durP1;ratioP1;P1;durP2;ratioP2;P2;SDS_P1;SDS_P2;PMS_P1;PMS_P2;Temp;Humidity;BMP_temperature;BMP_pressure;BME280_temperature;BME280_humidity;BME280_pressure;Samples;Min_cycle;Max_cycle;Signal;HPM_P1;HPM_P2
2023/06/15 00:00:57;;;;;;;8.05;5.47;;;;;;;16.49;53.62;99104.34;5045731;28;20049;-68
2023/06/15 00:03:24;;;;;;;7.95;5.30;;;;;;;16.46;53.85;99092.06;5045582;28;20091;-68
2023/06/15 00:05:51;;;;;;;7.35;5.47;;;;;;;16.46;53.48;99084.03;5045547;28;20045;-68
2023/06/15 00:08:20;;;;;;;6.00;5.20;;;;;;;16.44;53.25;99086.00;5045152;28;20060;-69
2023/06/15 00:10:47;;;;;;;7.68;4.90;;;;;;;16.40;53.69;99087.25;5045766;28;20045;-69
2023/06/15 00:13:14;;;;;;;9.45;5.45;;;;;;;16.40;53.61;99087.25;5046064;28;20041;-68
2023/06/15 00:15:41;;;;;;;5.93;5.32;;;;;;;16.29;53.84;99090.81;5044591;28;20042;-69
2023/06/15 00:18:07;;;;;;;7.57;6.25;;;;;;;16.31;53.46;99090.69;5045699;28;20041;-69
2023/06/15 00:20:34;;;;;;;5.95;5.25;;;;;;;16.27;53.42;99091.91;5045662;28;20037;-68
2023/06/15 00:23:02;;;;;;;6.10;4.97;;;;;;;16.25;53.00;99081.34;5044577;28;20128;-68
2023/06/15 00:25:33;;;;;;;6.20;5.32;;;;;;;16.17;53.34;99074.94;5045384;28;20061;-69
2023/06/15 00:27:59;;;;;;;5.88;5.15;;;;;;;16.20;52.91;99077.34;5045346;28;20045;-68
2023/06/15 00:30:26;;;;;;;18.33;6.20;;;;;;;16.19;52.78;99079.16;5045805;28;20041;-68
2023/06/15 00:32:53;;;;;;;6.03;5.43;;;;;;;16.14;52.94;99075.19;5045622;28;20200;-68
2023/06/15 00:35:19;;;;;;;6.22;5.50;;;;;;;16.10;52.91;99077.25;5045790;28;20159;-69
2023/06/15 00:37:46;;;;;;;7.88;5.80;;;;;;;15.91;52.79;99055.69;5045285;28;20104;-69
2023/06/15 00:40:13;;;;;;;6.30;5.25;;;;;;;16.09;53.01;99082.72;5045211;28;20038;-69
2023/06/15 00:42:41;;;;;;;6.63;5.43;;;;;;;16.00;52.90;99089.66;5045791;28;20051;-69
2023/06/15 00:45:08;;;;;;;6.03;5.38;;;;;;;16.02;53.04;99083.22;5045429;28;20099;-68
2023/06/15 00:47:41;;;;;;;7.65;5.53;;;;;;;15.51;52.72;98986.75;5045191;28;20308;-68
2023/06/15 00:50:10;;;;;;;6.22;5.32;;;;;;;15.46;52.28;99007.66;5045371;28;20059;-68
2023/06/15 00:52:38;;;;;;;7.00;5.20;;;;;;;15.97;52.45;99082.75;5045381;28;20053;-68
2023/06/15 00:55:06;;;;;;;6.07;5.40;;;;;;;15.23;52.65;98963.25;5045152;28;20065;-68
2023/06/15 00:57:35;;;;;;;6.00;4.65;;;;;;;15.90;52.64;99094.91;5045399;28;20041;-69
2023/06/15 01:00:09;;;;;;;6.20;4.53;;;;;;;15.85;52.44;99097.13;5045049;28;20029;-68
2023/06/15 01:02:38;;;;;;;5.63;4.22;;;;;;;15.83;52.29;99090.19;5046042;28;20112;-68
2023/06/15 01:05:05;;;;;;;5.90;5.20;;;;;;;15.84;52.53;99092.75;5048857;28;20071;-68
2023/06/15 01:07:35;;;;;;;5.85;5.25;;;;;;;15.88;52.30;99086.19;5049319;28;20041;-68
2023/06/15 01:10:04;;;;;;;6.05;4.78;;;;;;;15.88;51.97;99083.50;5048947;28;20060;-68
2023/06/15 01:12:31;;;;;;;7.00;4.75;;;;;;;15.91;52.70;99085.06;5048966;28;20064;-67
2023/06/15 01:14:58;;;;;;;5.95;5.18;;;;;;;15.92;52.36;99092.13;5048925;28;20045;-68
2023/06/15 01:17:28;;;;;;;5.50;4.95;;;;;;;15.88;52.91;99086.19;5048542;28;20187;-68
2023/06/15 01:20:08;;;;;;;5.40;4.85;;;;;;;15.80;53.38;99085.09;5049115;28;20043;-68
2023/06/15 01:22:49;;;;;;;6.97;4.75;;;;;;;15.78;53.26;99079.88;5049026;28;20072;-68
2023/06/15 01:25:26;;;;;;;5.07;4.28;;;;;;;15.75;53.65;99088.16;5047646;28;20316;-67
2023/06/15 01:28:00;;;;;;;7.68;4.57;;;;;;;15.72;53.83;99085.72;5048956;28;20057;-68
2023/06/15 01:30:28;;;;;;;5.80;4.90;;;;;;;15.28;53.84;99031.34;5048606;28;20076;-68
2023/06/15 01:32:55;;;;;;;5.50;4.60;;;;;;;15.66;53.82;99087.06;5048573;28;20049;-67
2023/06/15 01:35:22;;;;;;;7.65;5.93;;;;;;;15.65;54.16;99093.38;5048239;28;20041;-68
2023/06/15 01:37:49;;;;;;;5.90;5.18;;;;;;;15.66;53.71;99080.88;5048581;28;20047;-68
2023/06/15 01:40:17;;;;;;;7.35;5.43;;;;;;;15.65;53.86;99084.50;5048164;28;20045;-68
2023/06/15 01:42:45;;;;;;;6.22;4.72;;;;;;;15.62;54.03;99082.91;5048138;28;20037;-68
2023/06/15 01:45:15;;;;;;;5.93;5.32;;;;;;;15.59;54.16;99079.63;5048630;28;20100;-68
2023/06/15 01:47:44;;;;;;;6.00;5.32;;;;;;;15.53;53.89;99080.97;5048588;28;20053;-68
2023/06/15 01:50:12;;;;;;;6.53;5.50;;;;;;;15.54;53.73;99088.00;5048187;28;20297;-68
2023/06/15 01:52:39;;;;;;;5.18;4.55;;;;;;;15.51;54.13;99085.59;5047963;28;20045;-68
2023/06/15 01:55:07;;;;;;;8.23;6.22;;;;;;;15.57;53.87;99085.09;5047052;28;20061;-68
2023/06/15 01:57:36;;;;;;;6.82;6.03;;;;;;;15.55;54.23;99083.50;5048147;28;20237;-68
2023/06/15 02:00:04;;;;;;;7.00;5.60;;;;;;;15.53;54.53;99080.97;5048131;28;20042;-73
2023/06/15 02:02:33;;;;;;;6.30;5.60;;;;;;;15.52;54.58;99081.09;5048281;28;20103;-72
2023/06/15 02:05:00;;;;;;;7.28;5.57;;;;;;;15.45;54.78;99078.06;5047945;28;20193;-72
2023/06/15 02:07:26;;;;;;;7.45;5.55;;;;;;;15.40;54.75;99073.09;5047719;28;20344;-72
2023/06/15 02:09:53;;;;;;;6.00;5.40;;;;;;;15.42;54.86;99083.66;5047557;28;20080;-72
2023/06/15 02:12:20;;;;;;;5.90;5.18;;;;;;;15.40;55.04;99085.59;5047910;28;20052;-72
2023/06/15 02:14:49;;;;;;;5.72;4.85;;;;;;;15.44;54.69;99081.69;5045601;28;20045;-72
2023/06/15 02:17:17;;;;;;;5.72;4.93;;;;;;;14.96;54.95;99019.69;5047524;28;20052;-73
2023/06/15 02:19:45;;;;;;;6.80;5.80;;;;;;;15.34;54.90;99089.59;5047663;28;20041;-72
2023/06/15 02:22:12;;;;;;;5.47;4.85;;;;;;;15.30;55.16;99096.13;5047951;28;20047;-73
2023/06/15 02:24:38;;;;;;;5.30;4.78;;;;;;;15.28;55.04;99092.75;5047652;28;20053;-73
2023/06/15 02:27:06;;;;;;;5.43;4.78;;;;;;;15.33;55.12;99100.38;5046452;28;20048;-73
2023/06/15 02:29:32;;;;;;;6.03;5.10;;;;;;;15.37;55.12;99099.19;5047726;28;20104;-72
2023/06/15 02:31:59;;;;;;;7.05;5.22;;;;;;;15.16;55.21;99074.16;5047775;28;20053;-72
2023/06/15 02:34:26;;;;;;;6.57;5.03;;;;;;;15.26;55.50;99104.50;5047171;28;20095;-72
2023/06/15 02:36:54;;;;;;;6.00;5.00;;;;;;;15.19;55.70;99105.97;5047710;28;20117;-72
2023/06/15 02:39:21;;;;;;;6.63;5.03;;;;;;;15.21;56.05;99106.69;5046056;28;20054;-73
2023/06/15 02:41:48;;;;;;;6.55;5.50;;;;;;;15.19;56.31;99104.13;5047318;28;20237;-73
2023/06/15 02:44:15;;;;;;;8.98;5.47;;;;;;;15.19;55.67;99100.63;5047241;28;20041;-73
2023/06/15 02:46:42;;;;;;;7.80;4.78;;;;;;;15.22;55.55;99097.72;5047177;28;20286;-73
2023/06/15 02:49:09;;;;;;;5.97;5.05;;;;;;;14.61;55.74;99004.59;5047068;28;20051;-72
2023/06/15 02:51:37;;;;;;;7.10;5.20;;;;;;;15.14;56.15;99094.78;5047385;28;20083;-73
2023/06/15 02:54:06;;;;;;;6.05;5.13;;;;;;;15.14;56.41;99092.97;5047351;28;20101;-72
2023/06/15 02:56:36;;;;;;;5.43;4.88;;;;;;;15.06;56.50;99098.91;5046980;28;20359;-72
2023/06/15 02:59:02;;;;;;;6.95;4.90;;;;;;;14.92;56.86;99080.44;5046964;28;20037;-72
2023/06/15 03:01:37;;;;;;;8.63;7.72;;;;;;;15.06;56.89;99096.25;5045829;28;20201;-73
2023/06/15 03:04:03;;;;;;;9.77;7.47;;;;;;;15.02;56.80;99094.78;5045794;28;20045;-73
2023/06/15 03:06:33;;;;;;;7.78;5.97;;;;;;;15.00;56.86;99096.72;5045677;28;20328;-73
2023/06/15 03:09:00;;;;;;;6.82;5.07;;;;;;;15.01;57.01;99097.56;5047072;28;20108;-73
2023/06/15 03:11:28;;;;;;;8.27;5.25;;;;;;;14.96;57.09;99103.25;5046390;28;20045;-73
2023/06/15 03:13:55;;;;;;;7.32;5.32;;;;;;;14.96;56.88;99099.75;5046397;28;20045;-72
2023/06/15 03:16:25;;;;;;;6.63;5.93;;;;;;;14.98;57.22;99100.47;5046331;28;20252;-73
2023/06/15 03:18:53;;;;;;;5.25;4.72;;;;;;;14.90;57.30;99098.38;5046283;28;20049;-72
2023/06/15 03:21:22;;;;;;;6.38;5.07;;;;;;;14.89;57.55;99104.69;5046259;28;20038;-73
2023/06/15 03:23:50;;;;;;;12.35;5.45;;;;;;;14.90;57.26;99113.56;5046480;28;20037;-73
2023/06/15 03:26:17;;;;;;;6.47;4.70;;;;;;;14.88;57.59;99110.16;5046425;28;20072;-73
2023/06/15 03:28:45;;;;;;;7.85;5.00;;;;;;;14.88;57.73;99105.66;5046005;28;20041;-72
2023/06/15 03:31:17;;;;;;;7.93;5.05;;;;;;;14.85;57.94;99110.38;5045950;28;20043;-73
2023/06/15 03:33:44;;;;;;;6.53;5.07;;;;;;;14.47;57.85;99050.09;5045156;28;20049;-72
2023/06/15 03:36:13;;;;;;;6.75;5.72;;;;;;;14.83;58.06;99104.31;5046267;28;20060;-73
2023/06/15 03:38:41;;;;;;;7.13;5.95;;;;;;;14.83;58.01;99105.16;5045880;28;20265;-73
2023/06/15 03:41:08;;;;;;;8.38;5.72;;;;;;;14.84;58.31;99112.19;5045939;28;20046;-73
2023/06/15 03:43:35;;;;;;;5.75;4.95;;;;;;;14.28;58.12;99021.31;5045904;28;20094;-73
2023/06/15 03:46:03;;;;;;;7.50;5.82;;;;;;;14.85;58.10;99115.72;5046352;28;20041;-73
2023/06/15 03:48:30;;;;;;;5.70;5.10;;;;;;;14.87;58.17;99119.13;5045807;28;20049;-73
2023/06/15 03:50:57;;;;;;;7.88;5.90;;;;;;;14.88;57.92;99115.47;5044880;28;20044;-72
2023/06/15 03:53:24;;;;;;;6.55;5.13;;;;;;;14.90;58.09;99111.72;5045205;28;20037;-73
2023/06/15 03:55:52;;;;;;;10.13;5.97;;;;;;;14.84;58.42;99125.53;5045670;28;20095;-73
2023/06/15 03:58:19;;;;;;;9.07;8.10;;;;;;;14.86;58.33;99126.28;5046175;28;20163;-73
2023/06/15 04:00:46;;;;;;;8.75;7.50;;;;;;;14.30;58.71;99040.69;5046137;28;20037;-73
2023/06/15 04:03:14;;;;;;;8.10;6.75;;;;;;;14.89;58.88;99131.38;5045879;28;20068;-73
2023/06/15 04:05:42;;;;;;;8.45;6.22;;;;;;;14.92;58.68;99135.63;5044752;28;20037;-73
2023/06/15 04:08:08;;;;;;;6.97;5.72;;;;;;;14.94;59.11;99137.22;5046052;28;20116;-73
2023/06/15 04:10:35;;;;;;;6.60;5.95;;;;;;;14.79;58.96;99110.84;5045406;28;20041;-73
2023/06/15 04:13:02;;;;;;;6.55;5.85;;;;;;;14.94;59.13;99141.69;5044648;28;20037;-73
2023/06/15 04:15:29;;;;;;;7.15;6.45;;;;;;;14.99;59.19;99145.72;5045695;28;20037;-73
2023/06/15 04:18:00;;;;;;;10.45;6.90;;;;;;;15.03;59.32;99146.34;5044595;28;20037;-73
2023/06/15 04:20:28;;;;;;;7.38;6.68;;;;;;;15.04;59.34;99148.88;5045955;28;20040;-73
2023/06/15 04:22:57;;;;;;;10.25;6.78;;;;;;;15.07;59.18;99140.66;5044490;28;20038;-73
2023/06/15 04:25:23;;;;;;;7.80;6.57;;;;;;;14.67;59.38;99075.28;5044452;28;20091;-72
2023/06/15 04:27:52;;;;;;;8.60;6.22;;;;;;;15.13;59.28;99146.47;5045782;28;20037;-73
2023/06/15 04:30:24;;;;;;;7.40;6.50;;;;;;;15.17;59.29;99147.94;5045219;28;20298;-73
2023/06/15 04:32:57;;;;;;;8.93;7.18;;;;;;;15.17;59.63;99145.28;5044406;28;20313;-73
2023/06/15 04:35:24;;;;;;;8.38;6.78;;;;;;;15.18;59.29;99146.97;5045521;28;20046;-73
2023/06/15 04:37:53;;;;;;;7.20;6.25;;;;;;;15.19;59.54;99138.84;5046328;28;20301;-73
2023/06/15 04:40:21;;;;;;;8.40;5.72;;;;;;;15.18;59.72;99145.16;5049329;28;20080;-73
2023/06/15 04:42:47;;;;;;;7.95;6.53;;;;;;;15.02;59.53;99116.13;5049505;28;20045;-73
2023/06/15 04:45:15;;;;;;;7.05;6.15;;;;;;;15.24;59.72;99139.34;5049626;28;20045;-73
2023/06/15 04:47:42;;;;;;;6.93;6.25;;;;;;;15.19;59.49;99132.66;5049721;28;20092;-73
2023/06/15 04:50:13;;;;;;;7.15;6.45;;;;;;;15.31;59.23;99142.38;5049167;28;20136;-73
2023/06/15 04:52:40;;;;;;;6.53;5.80;;;;;;;15.34;59.25;99148.34;5049318;28;20100;-73
2023/06/15 04:55:10;;;;;;;10.20;6.88;;;;;;;15.34;59.98;99144.81;5049218;28;20286;-72
2023/06/15 04:57:37;;;;;;;7.50;5.95;;;;;;;15.33;59.81;99149.31;5049240;28;20057;-73
2023/06/15 05:00:07;;;;;;;9.90;6.95;;;;;;;15.31;59.62;99151.25;5049082;28;20045;-73
2023/06/15 05:02:33;;;;;;;10.93;6.60;;;;;;;15.35;59.87;99141.16;5048030;28;20053;-72
2023/06/15 05:05:00;;;;;;;7.07;6.18;;;;;;;15.46;59.19;99143.84;5048274;28;20129;-73
2023/06/15 05:07:27;;;;;;;8.10;6.60;;;;;;;15.46;59.57;99143.84;5048956;28;20056;-73
2023/06/15 05:09:54;;;;;;;7.18;6.47;;;;;;;15.54;58.67;99146.78;5049117;28;20037;-73
2023/06/15 05:12:23;;;;;;;7.72;6.35;;;;;;;15.61;58.94;99141.78;5047838;28;20087;-73
2023/06/15 05:14:50;;;;;;;7.05;5.82;;;;;;;15.70;58.86;99138.41;5049148;28;20056;-73
2023/06/15 05:17:17;;;;;;;7.63;6.82;;;;;;;15.62;58.15;99144.34;5048858;28;20076;-73
2023/06/15 05:19:44;;;;;;;6.80;6.10;;;;;;;15.65;58.93;99154.81;5048845;28;20056;-73
2023/06/15 05:22:10;;;;;;;7.65;6.82;;;;;;;15.53;58.33;99154.91;5048638;28;20221;-73
2023/06/15 05:24:37;;;;;;;8.02;6.10;;;;;;;15.59;58.65;99160.59;5048464;28;20041;-73
2023/06/15 05:27:04;;;;;;;7.53;6.25;;;;;;;15.66;58.17;99167.19;5047853;28;20052;-73
2023/06/15 05:29:32;;;;;;;7.40;6.57;;;;;;;15.72;58.14;99163.19;5048867;28;20075;-73
2023/06/15 05:32:00;;;;;;;8.50;5.78;;;;;;;15.60;57.67;99151.63;5048266;28;20091;-73
2023/06/15 05:34:26;;;;;;;6.18;5.32;;;;;;;15.78;57.77;99164.53;5048207;28;20053;-73
2023/06/15 05:36:53;;;;;;;7.25;5.70;;;;;;;15.77;57.20;99168.19;5048223;28;20107;-73
2023/06/15 05:39:20;;;;;;;6.07;5.30;;;;;;;15.60;57.99;99148.97;5048238;28;20083;-73
2023/06/15 05:41:47;;;;;;;7.53;6.20;;;;;;;15.73;57.46;99166.72;5048184;28;20294;-73
2023/06/15 05:44:14;;;;;;;7.50;6.05;;;;;;;15.76;57.57;99171.81;5048349;28;20038;-73
2023/06/15 05:46:43;;;;;;;7.30;5.75;;;;;;;15.76;57.51;99174.50;5048053;28;20045;-73
2023/06/15 05:49:09;;;;;;;8.35;6.45;;;;;;;15.80;57.03;99167.94;5047812;28;20041;-73
2023/06/15 05:51:36;;;;;;;7.13;6.22;;;;;;;15.80;57.18;99168.78;5047045;28;20048;-73
2023/06/15 05:54:03;;;;;;;5.82;5.00;;;;;;;15.86;57.16;99178.13;5047074;28;20041;-73
2023/06/15 05:56:31;;;;;;;7.72;6.50;;;;;;;15.80;57.17;99176.78;5047837;28;20320;-73
2023/06/15 05:58:57;;;;;;;6.88;6.18;;;;;;;15.85;57.19;99179.09;5048448;28;20048;-73
2023/06/15 06:01:24;;;;;;;7.25;6.38;;;;;;;15.87;56.91;99177.16;5047689;28;20104;-73
2023/06/15 06:03:52;;;;;;;7.75;6.35;;;;;;;15.95;56.74;99182.75;5048326;28;20052;-73
2023/06/15 06:06:19;;;;;;;7.18;5.65;;;;;;;15.97;56.82;99175.44;5047892;28;20059;-73
2023/06/15 06:08:47;;;;;;;8.88;7.25;;;;;;;15.95;56.63;99180.91;5046766;28;20120;-72
2023/06/15 06:11:14;;;;;;;7.28;6.50;;;;;;;16.00;56.71;99183.22;5047418;28;20033;-72
2023/06/15 06:13:41;;;;;;;8.43;5.40;;;;;;;16.07;56.53;99175.56;5048013;28;20064;-72
2023/06/15 06:16:07;;;;;;;6.93;5.50;;;;;;;16.13;56.12;99173.25;5047197;28;20112;-72
2023/06/15 06:18:34;;;;;;;12.15;5.55;;;;;;;16.15;56.37;99176.66;5047865;28;20230;-71
2023/06/15 06:21:03;;;;;;;9.20;5.95;;;;;;;16.22;55.96;99175.16;5047875;28;20305;-72
2023/06/15 06:23:32;;;;;;;7.10;6.32;;;;;;;16.25;55.77;99174.06;5047580;28;20041;-72
2023/06/15 06:25:59;;;;;;;11.68;6.50;;;;;;;16.24;56.11;99175.91;5030350;28;20124;-72
2023/06/15 06:28:26;;;;;;;7.85;6.38;;;;;;;16.30;56.28;99180.75;5047469;28;20055;-71
2023/06/15 06:30:53;;;;;;;8.35;6.72;;;;;;;16.33;56.76;99172.47;5046551;28;20095;-72
2023/06/15 06:33:19;;;;;;;7.07;6.38;;;;;;;13.84;56.55;98750.28;5047609;28;20045;-72
2023/06/15 06:35:46;;;;;;;8.05;6.28;;;;;;;16.46;57.05;99182.16;5047605;28;20061;-72
2023/06/15 06:38:14;;;;;;;8.48;5.90;;;;;;;16.50;56.85;99176.44;5047146;28;20087;-72
2023/06/15 06:40:41;;;;;;;8.30;6.18;;;;;;;16.51;57.19;99174.63;5047640;28;20061;-72
2023/06/15 06:43:08;;;;;;;8.98;5.97;;;;;;;16.54;56.87;99171.69;5047419;28;20053;-72
2023/06/15 06:45:34;;;;;;;7.57;6.55;;;;;;;16.51;56.96;99153.22;5047084;28;20156;-72
2023/06/15 06:48:01;;;;;;;16.30;6.80;;;;;;;16.62;57.03;99172.75;5046150;28;20037;-72
2023/06/15 06:50:28;;;;;;;8.10;6.50;;;;;;;16.66;57.25;99179.56;5047090;28;20108;-72
2023/06/15 06:52:55;;;;;;;8.23;6.97;;;;;;;16.71;56.50;99170.31;5046812;28;20037;-72
2023/06/15 06:55:23;;;;;;;8.73;5.60;;;;;;;16.79;57.29;99157.16;5046976;28;20052;-72
2023/06/15 06:57:50;;;;;;;8.30;6.30;;;;;;;17.00;56.93;99182.97;5046006;28;20191;-72
2023/06/15 07:00:17;;;;;;;8.68;6.78;;;;;;;17.13;56.19;99169.38;5045972;28;20088;-72
2023/06/15 07:02:44;;;;;;;9.93;7.07;;;;;;;17.24;57.04;99171.19;5046894;28;20249;-72
2023/06/15 07:05:10;;;;;;;9.38;6.53;;;;;;;17.37;56.78;99179.00;5046627;28;20075;-72
2023/06/15 07:07:37;;;;;;;14.32;7.60;;;;;;;17.18;56.49;99144.88;5045632;28;20096;-73
2023/06/15 07:10:05;;;;;;;6.95;5.82;;;;;;;17.41;56.38;99181.28;5046421;28;20037;-71
2023/06/15 07:12:33;;;;;;;8.90;7.03;;;;;;;17.58;56.01;99178.00;5046938;28;20061;-72
2023/06/15 07:15:00;;;;;;;8.35;6.60;;;;;;;17.67;55.84;99178.22;5047302;28;20103;-71
2023/06/15 07:17:27;;;;;;;8.73;6.30;;;;;;;17.77;56.20;99174.59;5046700;28;20045;-72
2023/06/15 07:19:53;;;;;;;7.45;6.30;;;;;;;17.99;55.92;99176.25;5045515;28;20037;-72
2023/06/15 07:22:21;;;;;;;7.75;6.13;;;;;;;18.15;55.60;99171.22;5046470;28;20044;-72
2023/06/15 07:24:47;;;;;;;8.50;6.28;;;;;;;18.41;54.83;99171.56;5045140;28;20201;-72
2023/06/15 07:27:14;;;;;;;7.35;6.00;;;;;;;18.58;54.16;99170.91;5046120;28;20210;-72
2023/06/15 07:29:42;;;;;;;6.03;5.43;;;;;;;18.73;52.89;99174.03;5046032;28;20041;-72
2023/06/15 07:32:09;;;;;;;9.23;6.68;;;;;;;18.86;52.17;99179.09;5045119;28;20029;-72
2023/06/15 07:34:36;;;;;;;5.78;5.18;;;;;;;19.04;51.71;99165.81;5046023;28;20049;-72
2023/06/15 07:37:03;;;;;;;8.57;5.72;;;;;;;18.97;51.84;99151.25;5045967;28;20037;-72
2023/06/15 07:39:30;;;;;;;7.55;6.00;;;;;;;19.29;51.20;99167.91;5045794;28;20057;-72
2023/06/15 07:41:57;;;;;;;6.78;5.57;;;;;;;19.44;50.36;99169.16;5045897;28;20045;-72
2023/06/15 07:44:24;;;;;;;7.90;6.65;;;;;;;19.59;48.71;99168.72;5045808;28;20363;-72
2023/06/15 07:46:52;;;;;;;6.32;5.38;;;;;;;19.66;48.94;99169.81;5045698;28;20033;-72
2023/06/15 07:49:19;;;;;;;8.07;6.30;;;;;;;19.85;48.29;99164.41;5045955;28;20049;-72
2023/06/15 07:51:46;;;;;;;8.25;5.95;;;;;;;20.00;48.08;99159.38;5044867;28;20037;-72
2023/06/15 07:54:12;;;;;;;9.85;6.32;;;;;;;20.05;47.60;99160.63;5045733;28;20041;-72
2023/06/15 07:56:39;;;;;;;6.97;6.28;;;;;;;20.23;47.07;99160.69;5046193;28;20107;-72
2023/06/15 07:59:06;;;;;;;7.93;6.75;;;;;;;20.31;45.56;99157.25;5045800;28;20103;-72
2023/06/15 08:01:32;;;;;;;6.60;5.72;;;;;;;20.36;46.34;99152.25;5046100;28;20042;-72
2023/06/15 08:04:01;;;;;;;8.50;6.00;;;;;;;20.54;45.56;99155.81;5044634;28;20052;-72
2023/06/15 08:06:27;;;;;;;9.15;6.43;;;;;;;20.70;44.98;99155.13;5045793;28;20041;-72
2023/06/15 08:08:54;;;;;;;8.40;6.00;;;;;;;20.82;44.82;99145.81;5045584;28;20356;-72
2023/06/15 08:11:21;;;;;;;5.72;4.90;;;;;;;20.96;44.99;99150.66;5044366;28;20045;-72
2023/06/15 08:13:47;;;;;;;5.28;4.68;;;;;;;21.25;44.42;99149.56;5044894;28;20099;-72
2023/06/15 08:16:14;;;;;;;10.05;5.32;;;;;;;21.18;43.31;99148.50;5044327;28;20037;-72
2023/06/15 08:18:41;;;;;;;5.50;4.78;;;;;;;21.37;43.86;99143.75;5045737;28;20049;-72
2023/06/15 08:21:09;;;;;;;5.60;4.82;;;;;;;21.42;42.46;99141.44;5045065;28;20290;-72
2023/06/15 08:23:36;;;;;;;9.77;5.60;;;;;;;21.36;43.24;99136.69;5045211;28;20051;-71
2023/06/15 08:26:03;;;;;;;7.22;6.47;;;;;;;21.59;42.56;99137.00;5045842;28;20056;-72
2023/06/15 08:28:30;;;;;;;6.40;5.72;;;;;;;21.46;42.31;99141.97;5044676;28;20041;-72
2023/06/15 08:30:56;;;;;;;6.28;5.15;;;;;;;21.66;42.08;99135.34;5045397;28;20046;-71
2023/06/15 08:33:23;;;;;;;6.63;5.63;;;;;;;21.66;41.69;99143.44;5045244;28;20045;-72
2023/06/15 08:35:50;;;;;;;5.95;5.22;;;;;;;21.77;41.98;99140.47;5045412;28;20069;-72
2023/06/15 08:38:18;;;;;;;6.78;5.60;;;;;;;21.79;41.23;99143.00;5027792;28;20061;-73
2023/06/15 08:40:46;;;;;;;6.55;5.88;;;;;;;21.90;41.63;99140.03;5045103;28;20049;-72
2023/06/15 08:43:16;;;;;;;7.03;5.15;;;;;;;21.99;41.95;99135.53;5045252;28;20050;-72
2023/06/15 08:45:44;;;;;;;6.88;5.75;;;;;;;21.99;41.85;99130.97;5045122;28;20108;-72
2023/06/15 08:48:13;;;;;;;7.97;5.50;;;;;;;22.27;41.24;99130.72;5045065;28;20116;-72
2023/06/15 08:50:41;;;;;;;7.03;5.40;;;;;;;22.44;40.76;99132.50;5045587;28;20033;-72
2023/06/15 08:53:09;;;;;;;6.20;4.95;;;;;;;22.56;40.67;99131.19;5045227;28;20068;-72
2023/06/15 08:55:38;;;;;;;5.88;5.28;;;;;;;22.41;40.69;99138.22;5044200;28;20049;-72
2023/06/15 08:58:07;;;;;;;6.40;5.40;;;;;;;22.45;40.17;99104.47;5045250;28;20034;-72
2023/06/15 09:00:35;;;;;;;7.57;5.90;;;;;;;22.70;40.55;99132.41;5044083;28;20061;-72
2023/06/15 09:03:04;;;;;;;7.40;6.07;;;;;;;22.81;40.69;99133.94;5045206;28;20049;-72
2023/06/15 09:05:31;;;;;;;7.18;6.45;;;;;;;22.93;40.78;99130.72;5044935;28;20108;-72
2023/06/15 09:07:58;;;;;;;7.07;5.75;;;;;;;22.97;40.09;99128.53;5044893;28;20041;-72
2023/06/15 09:10:25;;;;;;;7.47;5.30;;;;;;;22.95;39.94;99126.00;5045412;28;20057;-72
2023/06/15 09:12:55;;;;;;;7.55;5.60;;;;;;;23.09;40.02;99131.72;5045311;28;20104;-72
2023/06/15 09:15:24;;;;;;;7.28;6.45;;;;;;;23.22;38.93;99134.75;5045395;28;20041;-72
2023/06/15 09:17:52;;;;;;;7.03;6.32;;;;;;;23.33;38.74;99129.88;5044976;28;20049;-72
2023/06/15 09:20:20;;;;;;;6.78;5.90;;;;;;;23.40;37.96;99126.50;5044415;28;20052;-72
2023/06/15 09:22:47;;;;;;;5.90;5.00;;;;;;;23.47;37.95;99127.50;5044990;28;20029;-71
2023/06/15 09:25:16;;;;;;;6.35;4.50;;;;;;;23.21;37.77;99131.22;5048522;28;20049;-72
2023/06/15 09:27:51;;;;;;;7.72;5.25;;;;;;;23.23;38.20;99126.47;5048383;28;20068;-72
2023/06/15 09:30:19;;;;;;;6.75;5.68;;;;;;;23.59;38.67;99129.66;5047408;28;20045;-72
2023/06/15 09:32:46;;;;;;;6.65;5.82;;;;;;;23.75;37.63;99128.75;5046986;28;20083;-72
2023/06/15 09:35:13;;;;;;;5.78;5.18;;;;;;;23.51;37.91;99123.44;5048040;28;20037;-72
2023/06/15 09:37:40;;;;;;;5.50;4.75;;;;;;;23.48;38.31;99126.47;5047345;28;20045;-72
2023/06/15 09:40:10;;;;;;;7.85;5.35;;;;;;;23.55;37.01;99122.91;5047155;28;20060;-72
2023/06/15 09:42:39;;;;;;;6.00;4.93;;;;;;;23.03;37.41;99052.19;5048251;28;20091;-72
2023/06/15 09:45:07;;;;;;;7.28;5.40;;;;;;;23.75;36.24;99125.22;5048583;28;20060;-72
2023/06/15 09:47:37;;;;;;;5.70;4.97;;;;;;;23.79;35.91;99110.31;5048026;28;20116;-72
2023/06/15 09:50:09;;;;;;;6.35;5.30;;;;;;;23.75;34.88;99099.00;5047909;28;20055;-72
2023/06/15 09:52:41;;;;;;;5.65;4.75;;;;;;;23.79;34.51;99110.31;5048433;28;20048;-72
2023/06/15 09:55:09;;;;;;;6.75;5.55;;;;;;;23.80;34.72;99106.59;5046655;28;20045;-72
2023/06/15 09:57:36;;;;;;;5.30;3.95;;;;;;;23.66;34.58;99106.31;5047896;28;20044;-73
2023/06/15 10:00:07;;;;;;;7.70;5.35;;;;;;;23.77;34.62;99106.94;5046923;28;20297;-73
2023/06/15 10:02:37;;;;;;;6.55;5.28;;;;;;;23.75;34.93;99085.47;5048244;28;20293;-73
2023/06/15 10:05:08;;;;;;;5.07;4.25;;;;;;;23.38;34.60;99028.47;5048328;28;20045;-73
2023/06/15 10:07:36;;;;;;;6.68;5.18;;;;;;;23.97;35.36;99103.69;5047847;28;20171;-72
2023/06/15 10:10:04;;;;;;;6.95;6.22;;;;;;;24.22;34.76;99098.97;5046713;28;20038;-72
2023/06/15 10:12:32;;;;;;;6.85;5.10;;;;;;;24.15;34.73;99102.56;5046409;28;20033;-72
2023/06/15 10:15:04;;;;;;;6.53;5.45;;;;;;;24.07;34.23;99097.19;5047302;28;20199;-73
2023/06/15 10:17:34;;;;;;;7.03;5.07;;;;;;;24.12;34.41;99094.81;5047182;28;20045;-72
2023/06/15 10:20:08;;;;;;;5.38;4.85;;;;;;;24.14;34.39;99090.06;5047783;28;20065;-72
2023/06/15 10:22:41;;;;;;;7.00;5.40;;;;;;;24.10;34.35;99126.63;5047495;28;20079;-73
2023/06/15 10:25:09;;;;;;;5.55;4.82;;;;;;;24.05;34.85;99093.84;5046326;28;20045;-72
2023/06/15 10:27:36;;;;;;;6.57;5.50;;;;;;;24.18;35.21;99072.44;5047051;28;20118;-72
2023/06/15 10:30:10;;;;;;;9.93;5.88;;;;;;;24.18;34.85;99061.59;5047152;28;20286;-73
2023/06/15 10:32:43;;;;;;;6.35;5.75;;;;;;;24.55;34.39;99085.22;5047393;28;20200;-73
2023/06/15 10:35:20;;;;;;;6.13;5.38;;;;;;;24.59;34.44;99083.84;5046387;28;20290;-73
2023/06/15 10:37:57;;;;;;;6.10;5.50;;;;;;;24.00;34.41;99000.47;5047443;28;20060;-73
2023/06/15 10:40:30;;;;;;;6.55;5.00;;;;;;;24.50;34.46;99088.47;5046290;28;20038;-72
2023/06/15 10:42:57;;;;;;;5.78;5.13;;;;;;;24.53;34.11;99074.56;5046212;28;20037;-72
2023/06/15 10:45:28;;;;;;;5.18;4.65;;;;;;;24.38;34.05;99078.25;5047222;28;20120;-72
2023/06/15 10:47:57;;;;;;;5.68;4.85;;;;;;;24.19;34.65;99053.31;5046039;28;20099;-72
2023/06/15 10:50:26;;;;;;;10.52;5.60;;;;;;;24.51;34.76;99054.94;5046817;28;20052;-73
2023/06/15 10:52:52;;;;;;;5.40;4.53;;;;;;;24.80;33.31;99072.38;5046643;28;20045;-72
2023/06/15 10:55:26;;;;;;;6.50;5.72;;;;;;;24.86;33.12;99069.75;5047049;28;20041;-72
2023/06/15 10:58:15;;;;;;;6.65;5.32;;;;;;;24.91;33.30;99070.06;5047034;28;20071;-72
2023/06/15 11:00:43;;;;;;;6.28;5.18;;;;;;;24.99;32.81;99073.72;5046978;28;20053;-72
2023/06/15 11:03:25;;;;;;;5.75;4.72;;;;;;;25.03;32.33;99062.34;5045721;28;20037;-73
2023/06/15 11:06:03;;;;;;;5.43;4.63;;;;;;;24.78;32.66;99031.06;5046501;28;20108;-72
2023/06/15 11:08:32;;;;;;;5.05;4.55;;;;;;;25.11;33.05;99056.84;5046825;28;20052;-72
2023/06/15 11:11:00;;;;;;;5.47;4.93;;;;;;;25.02;33.01;99044.41;5046458;28;20052;-72
2023/06/15 11:13:27;;;;;;;5.85;4.82;;;;;;;25.01;33.31;99056.28;5046305;28;20029;-71
2023/06/15 11:16:08;;;;;;;7.53;5.40;;;;;;;24.96;33.16;99070.34;5045599;28;20384;-72
2023/06/15 11:18:35;;;;;;;6.38;5.75;;;;;;;25.21;33.20;99054.72;5045259;28;20052;-72
2023/06/15 11:21:04;;;;;;;6.22;4.57;;;;;;;25.21;33.26;99060.16;5046642;28;20037;-73
2023/06/15 11:23:33;;;;;;;6.68;4.78;;;;;;;25.15;32.42;99043.78;5045984;28;20101;-72
2023/06/15 11:26:02;;;;;;;5.50;4.25;;;;;;;25.12;33.23;99055.84;5046208;28;20100;-72
2023/06/15 11:28:33;;;;;;;8.35;5.35;;;;;;;24.92;33.08;99047.34;5046453;28;20289;-73
2023/06/15 11:31:02;;;;;;;5.07;4.53;;;;;;;24.99;33.54;99046.63;5045839;28;20068;-73
2023/06/15 11:33:30;;;;;;;7.35;4.20;;;;;;;25.22;32.08;99055.56;5045133;28;20045;-73
2023/06/15 11:35:59;;;;;;;5.25;4.68;;;;;;;24.93;32.75;98992.09;5045036;28;20037;-72
2023/06/15 11:38:28;;;;;;;6.25;5.03;;;;;;;24.93;31.03;99019.22;5045933;28;20050;-73